sensor_id;sensor_type;location;lat;lon;timestamp;P1;durP1;ratioP1;P2;durP2;ratioP2
14975;SDS011;7584;60.468;25.126;2023-06-22T00:00:46;15.20;;;8.37;;
14975;SDS011;7584;60.468;25.126;2023-06-22T00:03:12;11.07;;;7.47;;
14975;SDS011;7584;60.468;25.126;2023-06-22T00:05:37;10.97;;;7.47;;
14975;SDS011;7584;60.468;25.126;2023-06-22T00:08:03;8.93;;;7.10;;
14975;SDS011;7584;60.468;25.126;2023-06-22T00:10:29;10.10;;;8.13;;
14975;SDS011;7584;60.468;25.126;2023-06-22T00:12:54;13.40;;;7.23;;
14975;SDS011;7584;60.468;25.126;2023-06-22T00:15:20;10.70;;;7.20;;
14975;SDS011;7584;60.468;25.126;2023-06-22T00:17:45;11.27;;;7.60;;
14975;SDS011;7584;60.468;25.126;2023-06-22T00:20:10;10.77;;;7.63;;
14975;SDS011;7584;60.468;25.126;2023-06-22T00:22:36;10.77;;;7.20;;
14975;SDS011;7584;60.468;25.126;2023-06-22T00:25:04;11.47;;;7.37;;
14975;SDS011;7584;60.468;25.126;2023-06-22T00:27:30;11.60;;;7.90;;
14975;SDS011;7584;60.468;25.126;2023-06-22T00:29:55;9.23;;;7.07;;
14975;SDS011;7584;60.468;25.126;2023-06-22T00:32:20;10.00;;;7.30;;
14975;SDS011;7584;60.468;25.126;2023-06-22T00:34:46;9.17;;;7.70;;
14975;SDS011;7584;60.468;25.126;2023-06-22T00:37:11;12.90;;;7.60;;
14975;SDS011;7584;60.468;25.126;2023-06-22T00:39:36;10.77;;;7.23;;
14975;SDS011;7584;60.468;25.126;2023-06-22T00:42:01;12.70;;;7.90;;
14975;SDS011;7584;60.468;25.126;2023-06-22T00:44:27;10.10;;;7.37;;
14975;SDS011;7584;60.468;25.126;2023-06-22T00:46:52;8.47;;;7.20;;
14975;SDS011;7584;60.468;25.126;2023-06-22T00:49:17;12.87;;;7.70;;
14975;SDS011;7584;60.468;25.126;2023-06-22T00:51:43;9.30;;;7.03;;
14975;SDS011;7584;60.468;25.126;2023-06-22T00:54:10;9.20;;;7.27;;
14975;SDS011;7584;60.468;25.126;2023-06-22T00:56:38;11.57;;;7.73;;
14975;SDS011;7584;60.468;25.126;2023-06-22T00:59:03;12.70;;;8.07;;
14975;SDS011;7584;60.468;25.126;2023-06-22T01:01:28;9.67;;;7.43;;
14975;SDS011;7584;60.468;25.126;2023-06-22T01:03:54;9.27;;;7.07;;
14975;SDS011;7584;60.468;25.126;2023-06-22T01:06:25;13.43;;;7.33;;
14975;SDS011;7584;60.468;25.126;2023-06-22T01:08:54;9.30;;;7.53;;
14975;SDS011;7584;60.468;25.126;2023-06-22T01:11:24;10.03;;;7.53;;
14975;SDS011;7584;60.468;25.126;2023-06-22T01:13:52;9.37;;;7.87;;
14975;SDS011;7584;60.468;25.126;2023-06-22T01:16:31;12.80;;;7.43;;
14975;SDS011;7584;60.468;25.126;2023-06-22T01:18:58;9.60;;;6.97;;
14975;SDS011;7584;60.468;25.126;2023-06-22T01:21:27;12.43;;;7.77;;
14975;SDS011;7584;60.468;25.126;2023-06-22T01:28:59;9.03;;;6.97;;
14975;SDS011;7584;60.468;25.126;2023-06-22T01:31:26;9.80;;;7.37;;
14975;SDS011;7584;60.468;25.126;2023-06-22T01:33:59;9.83;;;7.03;;
14975;SDS011;7584;60.468;25.126;2023-06-22T01:36:28;14.03;;;6.40;;
14975;SDS011;7584;60.468;25.126;2023-06-22T01:38:54;10.10;;;7.73;;
14975;SDS011;7584;60.468;25.126;2023-06-22T01:41:21;10.23;;;7.70;;
14975;SDS011;7584;60.468;25.126;2023-06-22T01:43:47;10.27;;;7.60;;
14975;SDS011;7584;60.468;25.126;2023-06-22T01:46:13;10.93;;;7.53;;
14975;SDS011;7584;60.468;25.126;2023-06-22T01:48:39;9.83;;;7.57;;
14975;SDS011;7584;60.468;25.126;2023-06-22T01:51:05;8.87;;;7.93;;
14975;SDS011;7584;60.468;25.126;2023-06-22T01:53:30;9.37;;;6.77;;
14975;SDS011;7584;60.468;25.126;2023-06-22T01:55:56;13.43;;;8.23;;
14975;SDS011;7584;60.468;25.126;2023-06-22T01:58:22;8.73;;;7.30;;
14975;SDS011;7584;60.468;25.126;2023-06-22T02:01:10;8.47;;;7.57;;
14975;SDS011;7584;60.468;25.126;2023-06-22T02:03:54;11.40;;;7.63;;
14975;SDS011;7584;60.468;25.126;2023-06-22T02:06:23;11.10;;;7.27;;
14975;SDS011;7584;60.468;25.126;2023-06-22T02:08:51;8.03;;;7.23;;
14975;SDS011;7584;60.468;25.126;2023-06-22T02:11:19;8.20;;;7.40;;
14975;SDS011;7584;60.468;25.126;2023-06-22T02:13:45;9.03;;;7.77;;
14975;SDS011;7584;60.468;25.126;2023-06-22T02:16:11;9.53;;;8.03;;
14975;SDS011;7584;60.468;25.126;2023-06-22T02:18:36;10.93;;;7.57;;
14975;SDS011;7584;60.468;25.126;2023-06-22T02:21:02;10.67;;;7.50;;
14975;SDS011;7584;60.468;25.126;2023-06-22T02:23:27;8.00;;;7.17;;
14975;SDS011;7584;60.468;25.126;2023-06-22T02:25:53;11.80;;;8.00;;
14975;SDS011;7584;60.468;25.126;2023-06-22T02:28:18;13.23;;;7.97;;
14975;SDS011;7584;60.468;25.126;2023-06-22T02:30:43;11.03;;;8.17;;
14975;SDS011;7584;60.468;25.126;2023-06-22T02:33:09;11.07;;;7.07;;
14975;SDS011;7584;60.468;25.126;2023-06-22T02:35:34;9.83;;;7.67;;
14975;SDS011;7584;60.468;25.126;2023-06-22T02:38:01;8.73;;;7.03;;
14975;SDS011;7584;60.468;25.126;2023-06-22T02:40:27;8.57;;;7.20;;
14975;SDS011;7584;60.468;25.126;2023-06-22T02:42:52;11.17;;;7.93;;
14975;SDS011;7584;60.468;25.126;2023-06-22T02:45:18;10.83;;;8.33;;
14975;SDS011;7584;60.468;25.126;2023-06-22T02:47:43;11.27;;;6.93;;
14975;SDS011;7584;60.468;25.126;2023-06-22T02:50:09;9.87;;;7.53;;
14975;SDS011;7584;60.468;25.126;2023-06-22T02:52:34;11.80;;;7.70;;
14975;SDS011;7584;60.468;25.126;2023-06-22T02:54:59;8.33;;;7.20;;
14975;SDS011;7584;60.468;25.126;2023-06-22T02:57:25;10.37;;;7.77;;
14975;SDS011;7584;60.468;25.126;2023-06-22T02:59:50;9.60;;;7.20;;
14975;SDS011;7584;60.468;25.126;2023-06-22T03:02:16;10.53;;;7.53;;
14975;SDS011;7584;60.468;25.126;2023-06-22T03:04:41;10.17;;;7.97;;
14975;SDS011;7584;60.468;25.126;2023-06-22T03:07:07;9.60;;;7.00;;
14975;SDS011;7584;60.468;25.126;2023-06-22T03:09:32;11.87;;;7.70;;
14975;SDS011;7584;60.468;25.126;2023-06-22T03:11:58;11.20;;;7.90;;
14975;SDS011;7584;60.468;25.126;2023-06-22T03:14:23;11.80;;;7.07;;
14975;SDS011;7584;60.468;25.126;2023-06-22T03:16:48;9.90;;;8.07;;
14975;SDS011;7584;60.468;25.126;2023-06-22T03:19:14;10.50;;;7.32;;
14975;SDS011;7584;60.468;25.126;2023-06-22T03:21:39;8.50;;;6.90;;
14975;SDS011;7584;60.468;25.126;2023-06-22T03:24:05;8.82;;;6.70;;
14975;SDS011;7584;60.468;25.126;2023-06-22T03:26:30;7.82;;;6.90;;
14975;SDS011;7584;60.468;25.126;2023-06-22T03:28:56;9.93;;;7.45;;
14975;SDS011;7584;60.468;25.126;2023-06-22T03:31:21;8.10;;;7.30;;
14975;SDS011;7584;60.468;25.126;2023-06-22T03:33:47;9.63;;;7.18;;
14975;SDS011;7584;60.468;25.126;2023-06-22T03:36:14;9.57;;;7.15;;
14975;SDS011;7584;60.468;25.126;2023-06-22T03:38:41;9.88;;;7.43;;
14975;SDS011;7584;60.468;25.126;2023-06-22T03:41:06;11.55;;;7.40;;
14975;SDS011;7584;60.468;25.126;2023-06-22T03:43:32;11.70;;;7.50;;
14975;SDS011;7584;60.468;25.126;2023-06-22T03:45:57;10.27;;;7.75;;
14975;SDS011;7584;60.468;25.126;2023-06-22T03:48:22;10.50;;;7.80;;
14975;SDS011;7584;60.468;25.126;2023-06-22T03:50:47;11.40;;;7.72;;
14975;SDS011;7584;60.468;25.126;2023-06-22T03:53:13;12.77;;;7.15;;
14975;SDS011;7584;60.468;25.126;2023-06-22T03:55:40;9.65;;;7.00;;
14975;SDS011;7584;60.468;25.126;2023-06-22T03:58:05;10.52;;;7.32;;
14975;SDS011;7584;60.468;25.126;2023-06-22T04:00:31;11.68;;;7.00;;
14975;SDS011;7584;60.468;25.126;2023-06-22T04:02:57;9.82;;;7.65;;
14975;SDS011;7584;60.468;25.126;2023-06-22T04:05:22;10.32;;;7.00;;
14975;SDS011;7584;60.468;25.126;2023-06-22T04:07:48;10.88;;;7.10;;
14975;SDS011;7584;60.468;25.126;2023-06-22T04:10:13;8.82;;;6.95;;
14975;SDS011;7584;60.468;25.126;2023-06-22T04:12:38;8.13;;;7.07;;
14975;SDS011;7584;60.468;25.126;2023-06-22T04:15:04;8.82;;;6.68;;
14975;SDS011;7584;60.468;25.126;2023-06-22T04:17:29;7.55;;;6.68;;
14975;SDS011;7584;60.468;25.126;2023-06-22T04:19:54;7.45;;;6.60;;
14975;SDS011;7584;60.468;25.126;2023-06-22T04:22:20;12.27;;;7.25;;
14975;SDS011;7584;60.468;25.126;2023-06-22T04:24:45;13.02;;;7.55;;
14975;SDS011;7584;60.468;25.126;2023-06-22T04:27:10;15.35;;;7.43;;
14975;SDS011;7584;60.468;25.126;2023-06-22T04:29:35;10.27;;;7.93;;
14975;SDS011;7584;60.468;25.126;2023-06-22T04:32:01;10.70;;;7.90;;
14975;SDS011;7584;60.468;25.126;2023-06-22T04:34:30;10.55;;;7.00;;
14975;SDS011;7584;60.468;25.126;2023-06-22T04:36:55;8.63;;;7.18;;
14975;SDS011;7584;60.468;25.126;2023-06-22T04:39:21;7.47;;;6.78;;
14975;SDS011;7584;60.468;25.126;2023-06-22T04:41:47;9.18;;;7.45;;
14975;SDS011;7584;60.468;25.126;2023-06-22T04:44:13;12.70;;;7.35;;
14975;SDS011;7584;60.468;25.126;2023-06-22T04:46:39;9.20;;;6.85;;
14975;SDS011;7584;60.468;25.126;2023-06-22T04:49:07;10.68;;;7.25;;
14975;SDS011;7584;60.468;25.126;2023-06-22T04:51:39;8.27;;;7.00;;
14975;SDS011;7584;60.468;25.126;2023-06-22T04:54:05;9.57;;;7.03;;
14975;SDS011;7584;60.468;25.126;2023-06-22T04:56:31;13.07;;;6.93;;
14975;SDS011;7584;60.468;25.126;2023-06-22T04:58:56;14.05;;;7.25;;
14975;SDS011;7584;60.468;25.126;2023-06-22T05:01:22;9.00;;;6.70;;
14975;SDS011;7584;60.468;25.126;2023-06-22T05:03:48;7.55;;;6.80;;
14975;SDS011;7584;60.468;25.126;2023-06-22T05:06:13;10.80;;;7.10;;
14975;SDS011;7584;60.468;25.126;2023-06-22T05:08:39;9.30;;;7.75;;
14975;SDS011;7584;60.468;25.126;2023-06-22T05:11:04;8.55;;;6.78;;
14975;SDS011;7584;60.468;25.126;2023-06-22T05:13:30;11.40;;;6.57;;
14975;SDS011;7584;60.468;25.126;2023-06-22T05:15:55;8.05;;;6.97;;
14975;SDS011;7584;60.468;25.126;2023-06-22T05:18:26;9.68;;;7.20;;
14975;SDS011;7584;60.468;25.126;2023-06-22T05:20:51;7.72;;;6.90;;
14975;SDS011;7584;60.468;25.126;2023-06-22T05:23:17;8.25;;;6.25;;
14975;SDS011;7584;60.468;25.126;2023-06-22T05:25:42;14.73;;;6.93;;
14975;SDS011;7584;60.468;25.126;2023-06-22T05:28:07;11.25;;;8.02;;
14975;SDS011;7584;60.468;25.126;2023-06-22T05:30:36;8.32;;;7.28;;
14975;SDS011;7584;60.468;25.126;2023-06-22T05:33:01;10.05;;;7.15;;
14975;SDS011;7584;60.468;25.126;2023-06-22T05:35:26;10.07;;;7.68;;
14975;SDS011;7584;60.468;25.126;2023-06-22T05:37:52;8.75;;;6.63;;
14975;SDS011;7584;60.468;25.126;2023-06-22T05:40:17;8.82;;;7.65;;
14975;SDS011;7584;60.468;25.126;2023-06-22T05:42:42;12.70;;;7.72;;
14975;SDS011;7584;60.468;25.126;2023-06-22T05:45:08;8.48;;;7.05;;
14975;SDS011;7584;60.468;25.126;2023-06-22T05:47:34;11.32;;;7.68;;
14975;SDS011;7584;60.468;25.126;2023-06-22T05:49:59;7.63;;;6.50;;
14975;SDS011;7584;60.468;25.126;2023-06-22T05:52:24;11.05;;;6.82;;
14975;SDS011;7584;60.468;25.126;2023-06-22T05:54:50;13.20;;;7.40;;
14975;SDS011;7584;60.468;25.126;2023-06-22T05:57:15;9.85;;;7.05;;
14975;SDS011;7584;60.468;25.126;2023-06-22T05:59:40;10.00;;;7.03;;
14975;SDS011;7584;60.468;25.126;2023-06-22T06:02:05;8.73;;;6.65;;
14975;SDS011;7584;60.468;25.126;2023-06-22T06:04:31;8.07;;;7.22;;
14975;SDS011;7584;60.468;25.126;2023-06-22T06:06:56;9.25;;;7.07;;
14975;SDS011;7584;60.468;25.126;2023-06-22T06:09:21;7.65;;;6.85;;
14975;SDS011;7584;60.468;25.126;2023-06-22T06:11:46;10.18;;;7.50;;
14975;SDS011;7584;60.468;25.126;2023-06-22T06:14:12;10.88;;;7.28;;
14975;SDS011;7584;60.468;25.126;2023-06-22T06:16:37;9.13;;;7.60;;
14975;SDS011;7584;60.468;25.126;2023-06-22T06:19:02;8.75;;;7.43;;
14975;SDS011;7584;60.468;25.126;2023-06-22T06:21:28;8.38;;;7.30;;
14975;SDS011;7584;60.468;25.126;2023-06-22T06:23:53;9.13;;;7.25;;
14975;SDS011;7584;60.468;25.126;2023-06-22T06:26:18;13.32;;;7.75;;
14975;SDS011;7584;60.468;25.126;2023-06-22T06:28:53;9.13;;;7.70;;
14975;SDS011;7584;60.468;25.126;2023-06-22T06:31:18;10.15;;;7.43;;
14975;SDS011;7584;60.468;25.126;2023-06-22T06:33:43;12.00;;;8.10;;
14975;SDS011;7584;60.468;25.126;2023-06-22T06:36:09;14.07;;;8.18;;
14975;SDS011;7584;60.468;25.126;2023-06-22T06:38:34;10.73;;;8.45;;
14975;SDS011;7584;60.468;25.126;2023-06-22T06:41:00;13.05;;;8.18;;
14975;SDS011;7584;60.468;25.126;2023-06-22T06:43:25;11.43;;;8.77;;
14975;SDS011;7584;60.468;25.126;2023-06-22T06:45:51;9.68;;;8.30;;
14975;SDS011;7584;60.468;25.126;2023-06-22T06:48:16;11.40;;;7.88;;
14975;SDS011;7584;60.468;25.126;2023-06-22T06:50:42;13.18;;;9.27;;
14975;SDS011;7584;60.468;25.126;2023-06-22T06:53:09;15.70;;;8.88;;
14975;SDS011;7584;60.468;25.126;2023-06-22T06:55:34;10.27;;;9.20;;
14975;SDS011;7584;60.468;25.126;2023-06-22T06:57:59;13.55;;;9.27;;
14975;SDS011;7584;60.468;25.126;2023-06-22T07:00:25;10.00;;;8.98;;
14975;SDS011;7584;60.468;25.126;2023-06-22T07:02:51;13.80;;;8.35;;
14975;SDS011;7584;60.468;25.126;2023-06-22T07:05:16;9.82;;;8.40;;
14975;SDS011;7584;60.468;25.126;2023-06-22T07:07:41;9.75;;;8.80;;
14975;SDS011;7584;60.468;25.126;2023-06-22T07:10:07;11.68;;;9.10;;
14975;SDS011;7584;60.468;25.126;2023-06-22T07:12:33;10.27;;;8.95;;
14975;SDS011;7584;60.468;25.126;2023-06-22T07:15:05;11.85;;;9.40;;
14975;SDS011;7584;60.468;25.126;2023-06-22T07:17:31;12.70;;;9.10;;
14975;SDS011;7584;60.468;25.126;2023-06-22T07:19:56;10.20;;;9.05;;
14975;SDS011;7584;60.468;25.126;2023-06-22T07:22:21;10.75;;;9.68;;
14975;SDS011;7584;60.468;25.126;2023-06-22T07:24:46;10.52;;;9.48;;
14975;SDS011;7584;60.468;25.126;2023-06-22T07:27:12;10.98;;;9.88;;
14975;SDS011;7584;60.468;25.126;2023-06-22T07:29:37;14.50;;;9.93;;
14975;SDS011;7584;60.468;25.126;2023-06-22T07:32:04;10.88;;;9.77;;
14975;SDS011;7584;60.468;25.126;2023-06-22T07:34:30;13.75;;;10.57;;
14975;SDS011;7584;60.468;25.126;2023-06-22T07:36:55;11.35;;;10.10;;
14975;SDS011;7584;60.468;25.126;2023-06-22T07:39:21;11.80;;;10.68;;
14975;SDS011;7584;60.468;25.126;2023-06-22T07:41:50;12.25;;;10.48;;
14975;SDS011;7584;60.468;25.126;2023-06-22T07:44:16;11.38;;;10.27;;
14975;SDS011;7584;60.468;25.126;2023-06-22T07:46:41;12.18;;;11.00;;
14975;SDS011;7584;60.468;25.126;2023-06-22T07:49:06;14.38;;;10.73;;
14975;SDS011;7584;60.468;25.126;2023-06-22T07:51:33;11.25;;;10.15;;
14975;SDS011;7584;60.468;25.126;2023-06-22T07:53:58;11.52;;;10.43;;
14975;SDS011;7584;60.468;25.126;2023-06-22T07:56:23;11.65;;;10.45;;
14975;SDS011;7584;60.468;25.126;2023-06-22T07:58:49;11.63;;;10.52;;
14975;SDS011;7584;60.468;25.126;2023-06-22T08:01:14;12.85;;;11.38;;
14975;SDS011;7584;60.468;25.126;2023-06-22T08:03:40;12.35;;;10.48;;
14975;SDS011;7584;60.468;25.126;2023-06-22T08:06:05;11.82;;;10.57;;
14975;SDS011;7584;60.468;25.126;2023-06-22T08:08:31;14.07;;;10.55;;
14975;SDS011;7584;60.468;25.126;2023-06-22T08:10:56;13.40;;;10.93;;
14975;SDS011;7584;60.468;25.126;2023-06-22T08:13:21;11.73;;;10.63;;
14975;SDS011;7584;60.468;25.126;2023-06-22T08:15:47;11.10;;;10.00;;
14975;SDS011;7584;60.468;25.126;2023-06-22T08:18:12;11.70;;;10.57;;
14975;SDS011;7584;60.468;25.126;2023-06-22T08:20:37;13.15;;;10.32;;
14975;SDS011;7584;60.468;25.126;2023-06-22T08:23:03;10.68;;;9.65;;
14975;SDS011;7584;60.468;25.126;2023-06-22T08:25:34;10.57;;;9.48;;
14975;SDS011;7584;60.468;25.126;2023-06-22T08:28:00;11.02;;;9.85;;
14975;SDS011;7584;60.468;25.126;2023-06-22T08:30:25;9.93;;;9.02;;
14975;SDS011;7584;60.468;25.126;2023-06-22T08:32:51;9.70;;;8.90;;
14975;SDS011;7584;60.468;25.126;2023-06-22T08:35:16;10.40;;;9.30;;
14975;SDS011;7584;60.468;25.126;2023-06-22T08:37:41;10.27;;;9.10;;
14975;SDS011;7584;60.468;25.126;2023-06-22T08:40:07;11.02;;;9.45;;
14975;SDS011;7584;60.468;25.126;2023-06-22T08:42:37;9.13;;;8.23;;
14975;SDS011;7584;60.468;25.126;2023-06-22T08:45:03;11.57;;;9.50;;
14975;SDS011;7584;60.468;25.126;2023-06-22T08:47:29;9.73;;;8.80;;
14975;SDS011;7584;60.468;25.126;2023-06-22T08:49:54;11.35;;;8.82;;
14975;SDS011;7584;60.468;25.126;2023-06-22T08:52:19;9.68;;;8.70;;
14975;SDS011;7584;60.468;25.126;2023-06-22T08:54:45;9.43;;;8.52;;
14975;SDS011;7584;60.468;25.126;2023-06-22T08:57:11;9.77;;;8.88;;
14975;SDS011;7584;60.468;25.126;2023-06-22T08:59:36;9.07;;;8.23;;
14975;SDS011;7584;60.468;25.126;2023-06-22T09:02:01;9.63;;;8.02;;
14975;SDS011;7584;60.468;25.126;2023-06-22T09:04:26;11.40;;;9.73;;
14975;SDS011;7584;60.468;25.126;2023-06-22T09:06:52;10.18;;;9.18;;
14975;SDS011;7584;60.468;25.126;2023-06-22T09:09:17;10.25;;;9.35;;
14975;SDS011;7584;60.468;25.126;2023-06-22T09:11:43;10.50;;;9.50;;
14975;SDS011;7584;60.468;25.126;2023-06-22T09:14:08;10.93;;;9.75;;
14975;SDS011;7584;60.468;25.126;2023-06-22T09:16:34;11.00;;;9.93;;
14975;SDS011;7584;60.468;25.126;2023-06-22T09:18:59;10.95;;;9.07;;
14975;SDS011;7584;60.468;25.126;2023-06-22T09:21:24;9.20;;;8.30;;
14975;SDS011;7584;60.468;25.126;2023-06-22T09:23:50;10.43;;;9.43;;
14975;SDS011;7584;60.468;25.126;2023-06-22T09:26:19;11.55;;;9.18;;
14975;SDS011;7584;60.468;25.126;2023-06-22T09:28:44;10.45;;;9.48;;
14975;SDS011;7584;60.468;25.126;2023-06-22T09:31:09;11.00;;;9.93;;
14975;SDS011;7584;60.468;25.126;2023-06-22T09:33:35;10.95;;;9.85;;
14975;SDS011;7584;60.468;25.126;2023-06-22T09:36:01;11.15;;;10.05;;
14975;SDS011;7584;60.468;25.126;2023-06-22T09:38:26;13.60;;;10.48;;
14975;SDS011;7584;60.468;25.126;2023-06-22T09:40:51;11.43;;;10.30;;
14975;SDS011;7584;60.468;25.126;2023-06-22T09:43:16;11.63;;;10.27;;
14975;SDS011;7584;60.468;25.126;2023-06-22T09:45:42;11.85;;;9.93;;
14975;SDS011;7584;60.468;25.126;2023-06-22T09:48:07;11.35;;;10.25;;
14975;SDS011;7584;60.468;25.126;2023-06-22T09:50:32;11.40;;;10.30;;
14975;SDS011;7584;60.468;25.126;2023-06-22T09:52:57;12.15;;;10.10;;
14975;SDS011;7584;60.468;25.126;2023-06-22T09:55:23;11.35;;;10.25;;
14975;SDS011;7584;60.468;25.126;2023-06-22T09:57:48;14.63;;;10.38;;
14975;SDS011;7584;60.468;25.126;2023-06-22T10:00:14;10.48;;;9.52;;
14975;SDS011;7584;60.468;25.126;2023-06-22T10:02:43;11.23;;;10.13;;
14975;SDS011;7584;60.468;25.126;2023-06-22T10:05:08;12.55;;;10.07;;
14975;SDS011;7584;60.468;25.126;2023-06-22T10:07:33;10.43;;;9.43;;
14975;SDS011;7584;60.468;25.126;2023-06-22T10:09:59;10.90;;;9.55;;
14975;SDS011;7584;60.468;25.126;2023-06-22T10:12:25;10.20;;;9.20;;
14975;SDS011;7584;60.468;25.126;2023-06-22T10:14:50;9.02;;;8.00;;
14975;SDS011;7584;60.468;25.126;2023-06-22T10:17:16;9.18;;;8.27;;
14975;SDS011;7584;60.468;25.126;2023-06-22T10:19:41;9.20;;;8.40;;
14975;SDS011;7584;60.468;25.126;2023-06-22T10:22:06;9.73;;;8.80;;
14975;SDS011;7584;60.468;25.126;2023-06-22T10:24:32;8.43;;;7.63;;
14975;SDS011;7584;60.468;25.126;2023-06-22T10:26:57;9.43;;;8.40;;
14975;SDS011;7584;60.468;25.126;2023-06-22T10:29:22;9.20;;;7.90;;
14975;SDS011;7584;60.468;25.126;2023-06-22T10:31:48;9.15;;;8.25;;
14975;SDS011;7584;60.468;25.126;2023-06-22T10:34:13;9.75;;;8.75;;
14975;SDS011;7584;60.468;25.126;2023-06-22T10:36:38;9.40;;;8.27;;
14975;SDS011;7584;60.468;25.126;2023-06-22T10:39:04;10.02;;;8.52;;
14975;SDS011;7584;60.468;25.126;2023-06-22T10:41:29;9.60;;;8.60;;
14975;SDS011;7584;60.468;25.126;2023-06-22T10:43:55;9.48;;;7.97;;
14975;SDS011;7584;60.468;25.126;2023-06-22T10:46:21;10.15;;;9.00;;
14975;SDS011;7584;60.468;25.126;2023-06-22T10:48:46;9.32;;;8.52;;
14975;SDS011;7584;60.468;25.126;2023-06-22T10:51:11;10.15;;;8.50;;
14975;SDS011;7584;60.468;25.126;2023-06-22T10:53:37;8.80;;;8.00;;
14975;SDS011;7584;60.468;25.126;2023-06-22T10:56:02;9.57;;;8.60;;
14975;SDS011;7584;60.468;25.126;2023-06-22T10:58:27;9.10;;;8.27;;
14975;SDS011;7584;60.468;25.126;2023-06-22T11:00:52;9.50;;;8.60;;
14975;SDS011;7584;60.468;25.126;2023-06-22T11:03:18;10.02;;;9.00;;
14975;SDS011;7584;60.468;25.126;2023-06-22T11:05:43;10.13;;;9.13;;
14975;SDS011;7584;60.468;25.126;2023-06-22T11:08:08;11.00;;;9.80;;
14975;SDS011;7584;60.468;25.126;2023-06-22T11:10:34;12.60;;;10.85;;
14975;SDS011;7584;60.468;25.126;2023-06-22T11:12:59;13.55;;;10.40;;
14975;SDS011;7584;60.468;25.126;2023-06-22T11:15:24;13.07;;;10.40;;
14975;SDS011;7584;60.468;25.126;2023-06-22T11:17:50;14.05;;;10.98;;
14975;SDS011;7584;60.468;25.126;2023-06-22T11:20:15;12.38;;;10.95;;
14975;SDS011;7584;60.468;25.126;2023-06-22T11:22:41;11.00;;;9.70;;
14975;SDS011;7584;60.468;25.126;2023-06-22T11:25:07;11.82;;;10.73;;
14975;SDS011;7584;60.468;25.126;2023-06-22T11:27:32;11.40;;;10.30;;
14975;SDS011;7584;60.468;25.126;2023-06-22T11:29:58;11.00;;;9.95;;
14975;SDS011;7584;60.468;25.126;2023-06-22T11:32:23;11.07;;;9.98;;
14975;SDS011;7584;60.468;25.126;2023-06-22T11:34:48;11.43;;;10.23;;
14975;SDS011;7584;60.468;25.126;2023-06-22T11:37:13;11.18;;;9.93;;
14975;SDS011;7584;60.468;25.126;2023-06-22T11:39:40;10.98;;;9.88;;
14975;SDS011;7584;60.468;25.126;2023-06-22T11:42:05;11.85;;;10.68;;
14975;SDS011;7584;60.468;25.126;2023-06-22T11:44:31;11.77;;;10.68;;
14975;SDS011;7584;60.468;25.126;2023-06-22T11:46:56;11.57;;;10.48;;
14975;SDS011;7584;60.468;25.126;2023-06-22T11:49:21;11.88;;;10.63;;
14975;SDS011;7584;60.468;25.126;2023-06-22T11:51:46;11.65;;;9.88;;
14975;SDS011;7584;60.468;25.126;2023-06-22T11:54:12;12.43;;;9.93;;
14975;SDS011;7584;60.468;25.126;2023-06-22T11:56:37;10.30;;;9.30;;
14975;SDS011;7584;60.468;25.126;2023-06-22T11:59:02;11.07;;;9.98;;
14975;SDS011;7584;60.468;25.126;2023-06-22T12:01:28;10.88;;;9.88;;
14975;SDS011;7584;60.468;25.126;2023-06-22T12:03:53;9.45;;;8.48;;
14975;SDS011;7584;60.468;25.126;2023-06-22T12:06:18;9.23;;;8.43;;
14975;SDS011;7584;60.468;25.126;2023-06-22T12:08:44;9.73;;;8.82;;
14975;SDS011;7584;60.468;25.126;2023-06-22T12:11:09;9.52;;;8.55;;
14975;SDS011;7584;60.468;25.126;2023-06-22T12:13:34;9.23;;;8.43;;
14975;SDS011;7584;60.468;25.126;2023-06-22T12:15:59;8.85;;;8.05;;
14975;SDS011;7584;60.468;25.126;2023-06-22T12:18:25;9.65;;;8.85;;
14975;SDS011;7584;60.468;25.126;2023-06-22T12:20:50;9.40;;;8.60;;
14975;SDS011;7584;60.468;25.126;2023-06-22T12:23:16;10.50;;;8.75;;
14975;SDS011;7584;60.468;25.126;2023-06-22T12:25:41;10.50;;;9.40;;
14975;SDS011;7584;60.468;25.126;2023-06-22T12:28:06;10.07;;;9.18;;
14975;SDS011;7584;60.468;25.126;2023-06-22T12:30:34;11.02;;;10.00;;
14975;SDS011;7584;60.468;25.126;2023-06-22T12:33:00;10.27;;;9.38;;
14975;SDS011;7584;60.468;25.126;2023-06-22T12:35:25;10.70;;;9.60;;
14975;SDS011;7584;60.468;25.126;2023-06-22T12:37:50;11.40;;;10.32;;
14975;SDS011;7584;60.468;25.126;2023-06-22T12:40:16;10.93;;;9.82;;
14975;SDS011;7584;60.468;25.126;2023-06-22T12:42:41;13.77;;;10.60;;
14975;SDS011;7584;60.468;25.126;2023-06-22T12:45:07;10.15;;;9.25;;
14975;SDS011;7584;60.468;25.126;2023-06-22T12:47:33;11.13;;;9.85;;
14975;SDS011;7584;60.468;25.126;2023-06-22T12:49:58;10.50;;;9.27;;
14975;SDS011;7584;60.468;25.126;2023-06-22T12:52:23;12.55;;;10.18;;
14975;SDS011;7584;60.468;25.126;2023-06-22T12:54:49;10.32;;;9.43;;
14975;SDS011;7584;60.468;25.126;2023-06-22T12:57:14;10.88;;;9.65;;
14975;SDS011;7584;60.468;25.126;2023-06-22T12:59:39;10.40;;;9.43;;
14975;SDS011;7584;60.468;25.126;2023-06-22T13:02:05;10.02;;;9.02;;
14975;SDS011;7584;60.468;25.126;2023-06-22T13:04:30;10.98;;;9.88;;
14975;SDS011;7584;60.468;25.126;2023-06-22T13:06:55;11.52;;;10.45;;
14975;SDS011;7584;60.468;25.126;2023-06-22T13:09:21;10.02;;;9.13;;
14975;SDS011;7584;60.468;25.126;2023-06-22T13:11:46;11.43;;;10.32;;
14975;SDS011;7584;60.468;25.126;2023-06-22T13:14:11;11.95;;;10.75;;
14975;SDS011;7584;60.468;25.126;2023-06-22T13:16:37;13.68;;;10.45;;
14975;SDS011;7584;60.468;25.126;2023-06-22T13:19:02;11.27;;;10.18;;
14975;SDS011;7584;60.468;25.126;2023-06-22T13:21:27;11.73;;;10.57;;
14975;SDS011;7584;60.468;25.126;2023-06-22T13:23:52;12.68;;;11.20;;
14975;SDS011;7584;60.468;25.126;2023-06-22T13:26:18;11.18;;;10.20;;
14975;SDS011;7584;60.468;25.126;2023-06-22T13:28:43;11.98;;;10.88;;
14975;SDS011;7584;60.468;25.126;2023-06-22T13:31:08;12.55;;;11.35;;
14975;SDS011;7584;60.468;25.126;2023-06-22T13:33:34;13.38;;;11.75;;
14975;SDS011;7584;60.468;25.126;2023-06-22T13:35:59;13.15;;;11.75;;
14975;SDS011;7584;60.468;25.126;2023-06-22T13:38:24;13.43;;;12.05;;
14975;SDS011;7584;60.468;25.126;2023-06-22T13:40:50;14.73;;;13.20;;
14975;SDS011;7584;60.468;25.126;2023-06-22T13:43:16;14.90;;;13.50;;
14975;SDS011;7584;60.468;25.126;2023-06-22T13:45:41;16.52;;;14.25;;
14975;SDS011;7584;60.468;25.126;2023-06-22T13:48:07;21.27;;;14.82;;
14975;SDS011;7584;60.468;25.126;2023-06-22T13:50:32;18.13;;;14.10;;
14975;SDS011;7584;60.468;25.126;2023-06-22T13:52:57;19.83;;;14.82;;
14975;SDS011;7584;60.468;25.126;2023-06-22T13:55:23;15.55;;;13.95;;
14975;SDS011;7584;60.468;25.126;2023-06-22T13:57:48;35.92;;;19.98;;
14975;SDS011;7584;60.468;25.126;2023-06-22T14:00:13;21.55;;;16.80;;
14975;SDS011;7584;60.468;25.126;2023-06-22T14:02:39;17.90;;;16.00;;
14975;SDS011;7584;60.468;25.126;2023-06-22T14:05:07;16.45;;;14.80;;
14975;SDS011;7584;60.468;25.126;2023-06-22T14:07:33;16.08;;;14.57;;
14975;SDS011;7584;60.468;25.126;2023-06-22T14:09:59;16.63;;;15.02;;
14975;SDS011;7584;60.468;25.126;2023-06-22T14:12:24;16.65;;;14.85;;
14975;SDS011;7584;60.468;25.126;2023-06-22T14:14:50;16.02;;;14.43;;
14975;SDS011;7584;60.468;25.126;2023-06-22T14:17:15;15.77;;;13.85;;
14975;SDS011;7584;60.468;25.126;2023-06-22T14:19:40;16.00;;;14.30;;
14975;SDS011;7584;60.468;25.126;2023-06-22T14:22:06;16.25;;;14.75;;
14975;SDS011;7584;60.468;25.126;2023-06-22T14:24:31;16.90;;;15.02;;
14975;SDS011;7584;60.468;25.126;2023-06-22T14:26:56;15.82;;;14.25;;
14975;SDS011;7584;60.468;25.126;2023-06-22T14:29:22;16.60;;;14.68;;
14975;SDS011;7584;60.468;25.126;2023-06-22T14:31:47;16.40;;;14.70;;